sensor_id;sensor_type;location;lat;lon;timestamp;P1;durP1;ratioP1;P2;durP2;ratioP2
18695;SDS011;22617;43.690;27.956;2023-07-08T00:04:12;7.72;;;5.30;;
18695;SDS011;22617;43.690;27.956;2023-07-08T00:09:16;6.35;;;4.97;;
18695;SDS011;22617;43.690;27.956;2023-07-08T00:14:20;8.35;;;4.90;;
18695;SDS011;22617;43.690;27.956;2023-07-08T00:19:25;6.53;;;4.85;;
18695;SDS011;22617;43.690;27.956;2023-07-08T00:24:28;8.55;;;4.68;;
18695;SDS011;22617;43.690;27.956;2023-07-08T00:29:32;6.70;;;4.78;;
18695;SDS011;22617;43.690;27.956;2023-07-08T00:34:37;7.82;;;5.65;;
18695;SDS011;22617;43.690;27.956;2023-07-08T00:39:40;7.70;;;4.97;;
18695;SDS011;22617;43.690;27.956;2023-07-08T00:44:44;12.70;;;5.53;;
18695;SDS011;22617;43.690;27.956;2023-07-08T00:49:49;8.05;;;4.50;;
18695;SDS011;22617;43.690;27.956;2023-07-08T00:54:59;8.65;;;5.38;;
18695;SDS011;22617;43.690;27.956;2023-07-08T01:00:08;8.45;;;5.07;;
18695;SDS011;22617;43.690;27.956;2023-07-08T01:05:17;8.63;;;5.63;;
18695;SDS011;22617;43.690;27.956;2023-07-08T01:10:26;7.97;;;4.97;;
18695;SDS011;22617;43.690;27.956;2023-07-08T01:15:44;11.80;;;4.97;;
18695;SDS011;22617;43.690;27.956;2023-07-08T01:20:52;11.45;;;5.22;;
18695;SDS011;22617;43.690;27.956;2023-07-08T01:25:58;9.73;;;5.18;;
18695;SDS011;22617;43.690;27.956;2023-07-08T01:31:03;7.75;;;5.07;;
18695;SDS011;22617;43.690;27.956;2023-07-08T01:36:08;12.18;;;4.93;;
18695;SDS011;22617;43.690;27.956;2023-07-08T01:41:16;8.75;;;5.03;;
18695;SDS011;22617;43.690;27.956;2023-07-08T01:46:20;9.15;;;5.50;;
18695;SDS011;22617;43.690;27.956;2023-07-08T01:51:26;8.93;;;5.03;;
18695;SDS011;22617;43.690;27.956;2023-07-08T01:56:32;7.63;;;4.90;;
18695;SDS011;22617;43.690;27.956;2023-07-08T02:01:37;9.93;;;5.60;;
18695;SDS011;22617;43.690;27.956;2023-07-08T02:06:40;8.05;;;5.20;;
18695;SDS011;22617;43.690;27.956;2023-07-08T02:11:49;9.63;;;5.00;;
18695;SDS011;22617;43.690;27.956;2023-07-08T02:16:53;7.78;;;4.43;;
18695;SDS011;22617;43.690;27.956;2023-07-08T02:21:57;9.15;;;5.03;;
18695;SDS011;22617;43.690;27.956;2023-07-08T02:27:02;8.90;;;4.65;;
18695;SDS011;22617;43.690;27.956;2023-07-08T02:32:06;7.10;;;4.95;;
18695;SDS011;22617;43.690;27.956;2023-07-08T02:37:11;9.05;;;5.13;;
18695;SDS011;22617;43.690;27.956;2023-07-08T02:42:16;11.38;;;5.30;;
18695;SDS011;22617;43.690;27.956;2023-07-08T02:47:20;8.02;;;5.45;;
18695;SDS011;22617;43.690;27.956;2023-07-08T02:52:24;8.73;;;5.35;;
18695;SDS011;22617;43.690;27.956;2023-07-08T02:57:29;9.57;;;5.00;;
18695;SDS011;22617;43.690;27.956;2023-07-08T03:02:32;9.00;;;5.50;;
18695;SDS011;22617;43.690;27.956;2023-07-08T03:07:37;8.65;;;5.07;;
18695;SDS011;22617;43.690;27.956;2023-07-08T03:12:42;7.78;;;4.82;;
18695;SDS011;22617;43.690;27.956;2023-07-08T03:17:47;7.80;;;5.30;;
18695;SDS011;22617;43.690;27.956;2023-07-08T03:22:50;8.77;;;5.07;;
18695;SDS011;22617;43.690;27.956;2023-07-08T03:27:56;7.90;;;5.45;;
18695;SDS011;22617;43.690;27.956;2023-07-08T03:33:01;8.73;;;5.47;;
18695;SDS011;22617;43.690;27.956;2023-07-08T03:38:05;9.45;;;5.00;;
18695;SDS011;22617;43.690;27.956;2023-07-08T03:43:10;9.35;;;5.80;;
18695;SDS011;22617;43.690;27.956;2023-07-08T03:48:14;10.52;;;5.55;;
18695;SDS011;22617;43.690;27.956;2023-07-08T03:53:18;9.82;;;5.90;;
18695;SDS011;22617;43.690;27.956;2023-07-08T03:58:23;7.63;;;6.05;;
18695;SDS011;22617;43.690;27.956;2023-07-08T04:03:27;10.13;;;6.22;;
18695;SDS011;22617;43.690;27.956;2023-07-08T04:08:31;12.25;;;6.60;;
18695;SDS011;22617;43.690;27.956;2023-07-08T04:13:36;12.57;;;6.75;;
18695;SDS011;22617;43.690;27.956;2023-07-08T04:18:40;10.10;;;6.63;;
18695;SDS011;22617;43.690;27.956;2023-07-08T04:23:44;13.48;;;6.47;;
18695;SDS011;22617;43.690;27.956;2023-07-08T04:28:49;10.20;;;6.57;;
18695;SDS011;22617;43.690;27.956;2023-07-08T04:33:53;9.23;;;6.47;;
18695;SDS011;22617;43.690;27.956;2023-07-08T04:38:57;11.05;;;6.80;;
18695;SDS011;22617;43.690;27.956;2023-07-08T04:44:03;13.45;;;8.07;;
18695;SDS011;22617;43.690;27.956;2023-07-08T04:49:08;13.02;;;6.55;;
18695;SDS011;22617;43.690;27.956;2023-07-08T04:54:12;9.43;;;6.80;;
18695;SDS011;22617;43.690;27.956;2023-07-08T04:59:18;9.15;;;6.53;;
18695;SDS011;22617;43.690;27.956;2023-07-08T05:04:26;9.90;;;6.32;;
18695;SDS011;22617;43.690;27.956;2023-07-08T05:09:29;11.07;;;7.38;;
18695;SDS011;22617;43.690;27.956;2023-07-08T05:14:34;13.38;;;6.68;;
18695;SDS011;22617;43.690;27.956;2023-07-08T05:19:39;9.50;;;6.22;;
18695;SDS011;22617;43.690;27.956;2023-07-08T05:24:43;9.73;;;6.03;;
18695;SDS011;22617;43.690;27.956;2023-07-08T05:29:50;10.07;;;6.25;;
18695;SDS011;22617;43.690;27.956;2023-07-08T05:34:54;9.85;;;6.20;;
18695;SDS011;22617;43.690;27.956;2023-07-08T05:39:57;8.18;;;6.22;;
18695;SDS011;22617;43.690;27.956;2023-07-08T05:45:06;11.80;;;6.25;;
18695;SDS011;22617;43.690;27.956;2023-07-08T05:50:12;10.95;;;5.95;;
18695;SDS011;22617;43.690;27.956;2023-07-08T05:55:15;11.68;;;6.00;;
18695;SDS011;22617;43.690;27.956;2023-07-08T06:00:21;13.93;;;6.45;;
18695;SDS011;22617;43.690;27.956;2023-07-08T06:05:30;9.60;;;6.22;;
18695;SDS011;22617;43.690;27.956;2023-07-08T06:10:40;8.85;;;5.38;;
18695;SDS011;22617;43.690;27.956;2023-07-08T06:15:46;7.93;;;5.72;;
18695;SDS011;22617;43.690;27.956;2023-07-08T06:20:51;8.80;;;5.47;;
18695;SDS011;22617;43.690;27.956;2023-07-08T06:25:55;7.03;;;4.85;;
18695;SDS011;22617;43.690;27.956;2023-07-08T06:31:01;8.32;;;4.80;;
18695;SDS011;22617;43.690;27.956;2023-07-08T06:36:04;7.68;;;5.30;;
18695;SDS011;22617;43.690;27.956;2023-07-08T06:41:09;9.25;;;5.20;;
18695;SDS011;22617;43.690;27.956;2023-07-08T06:46:14;10.00;;;5.78;;
18695;SDS011;22617;43.690;27.956;2023-07-08T06:51:18;8.18;;;5.35;;
18695;SDS011;22617;43.690;27.956;2023-07-08T06:56:21;11.38;;;5.78;;
18695;SDS011;22617;43.690;27.956;2023-07-08T07:01:26;7.82;;;5.22;;
18695;SDS011;22617;43.690;27.956;2023-07-08T07:06:30;10.82;;;6.10;;
18695;SDS011;22617;43.690;27.956;2023-07-08T07:11:33;8.05;;;5.88;;
18695;SDS011;22617;43.690;27.956;2023-07-08T07:16:38;10.27;;;6.10;;
18695;SDS011;22617;43.690;27.956;2023-07-08T07:21:52;9.43;;;5.93;;
18695;SDS011;22617;43.690;27.956;2023-07-08T07:26:56;11.15;;;5.75;;
18695;SDS011;22617;43.690;27.956;2023-07-08T07:32:01;8.40;;;5.20;;
18695;SDS011;22617;43.690;27.956;2023-07-08T07:37:05;7.80;;;5.32;;
18695;SDS011;22617;43.690;27.956;2023-07-08T07:42:09;6.75;;;4.75;;
18695;SDS011;22617;43.690;27.956;2023-07-08T07:47:19;5.63;;;4.32;;
18695;SDS011;22617;43.690;27.956;2023-07-08T07:52:22;7.63;;;4.70;;
18695;SDS011;22617;43.690;27.956;2023-07-08T07:57:26;9.93;;;4.03;;
18695;SDS011;22617;43.690;27.956;2023-07-08T08:02:31;8.45;;;4.15;;
18695;SDS011;22617;43.690;27.956;2023-07-08T08:07:34;9.02;;;4.93;;
18695;SDS011;22617;43.690;27.956;2023-07-08T08:12:39;7.10;;;4.50;;
18695;SDS011;22617;43.690;27.956;2023-07-08T08:17:56;7.75;;;4.47;;
18695;SDS011;22617;43.690;27.956;2023-07-08T08:22:59;7.38;;;4.38;;
18695;SDS011;22617;43.690;27.956;2023-07-08T08:28:03;10.95;;;5.15;;
18695;SDS011;22617;43.690;27.956;2023-07-08T08:33:08;7.13;;;4.20;;
18695;SDS011;22617;43.690;27.956;2023-07-08T08:38:12;5.55;;;4.03;;
18695;SDS011;22617;43.690;27.956;2023-07-08T08:43:17;10.00;;;3.90;;
18695;SDS011;22617;43.690;27.956;2023-07-08T08:48:26;8.10;;;4.82;;
18695;SDS011;22617;43.690;27.956;2023-07-08T08:53:33;7.97;;;4.10;;
18695;SDS011;22617;43.690;27.956;2023-07-08T08:58:37;5.75;;;4.13;;
18695;SDS011;22617;43.690;27.956;2023-07-08T09:03:50;5.07;;;3.42;;
18695;SDS011;22617;43.690;27.956;2023-07-08T09:09:00;12.90;;;5.03;;
18695;SDS011;22617;43.690;27.956;2023-07-08T09:14:13;7.55;;;3.60;;
18695;SDS011;22617;43.690;27.956;2023-07-08T09:19:24;5.82;;;3.47;;
18695;SDS011;22617;43.690;27.956;2023-07-08T09:24:30;10.05;;;3.45;;
18695;SDS011;22617;43.690;27.956;2023-07-08T09:29:45;7.90;;;3.35;;
18695;SDS011;22617;43.690;27.956;2023-07-08T09:34:51;9.05;;;3.20;;
18695;SDS011;22617;43.690;27.956;2023-07-08T09:39:57;9.35;;;3.55;;
18695;SDS011;22617;43.690;27.956;2023-07-08T09:45:11;8.80;;;3.42;;
18695;SDS011;22617;43.690;27.956;2023-07-08T09:50:19;9.25;;;3.67;;
18695;SDS011;22617;43.690;27.956;2023-07-08T09:55:25;6.15;;;2.88;;
18695;SDS011;22617;43.690;27.956;2023-07-08T10:00:31;4.47;;;3.10;;
18695;SDS011;22617;43.690;27.956;2023-07-08T10:05:43;6.15;;;2.95;;
18695;SDS011;22617;43.690;27.956;2023-07-08T10:11:00;10.60;;;3.15;;
18695;SDS011;22617;43.690;27.956;2023-07-08T10:16:10;4.10;;;2.70;;
18695;SDS011;22617;43.690;27.956;2023-07-08T10:21:21;6.55;;;2.95;;
18695;SDS011;22617;43.690;27.956;2023-07-08T10:26:34;8.15;;;3.22;;
18695;SDS011;22617;43.690;27.956;2023-07-08T10:31:41;5.40;;;3.13;;
18695;SDS011;22617;43.690;27.956;2023-07-08T10:36:51;6.35;;;2.97;;
18695;SDS011;22617;43.690;27.956;2023-07-08T10:42:05;5.88;;;3.42;;
18695;SDS011;22617;43.690;27.956;2023-07-08T10:47:22;6.13;;;3.70;;
18695;SDS011;22617;43.690;27.956;2023-07-08T10:52:42;6.25;;;3.58;;
18695;SDS011;22617;43.690;27.956;2023-07-08T10:58:00;13.88;;;4.80;;
18695;SDS011;22617;43.690;27.956;2023-07-08T11:03:28;9.70;;;4.47;;
18695;SDS011;22617;43.690;27.956;2023-07-08T11:08:53;7.70;;;3.90;;
18695;SDS011;22617;43.690;27.956;2023-07-08T11:14:04;10.80;;;4.43;;
18695;SDS011;22617;43.690;27.956;2023-07-08T11:19:14;32.10;;;6.43;;
18695;SDS011;22617;43.690;27.956;2023-07-08T11:24:24;7.95;;;4.03;;
18695;SDS011;22617;43.690;27.956;2023-07-08T11:29:37;5.80;;;3.60;;
18695;SDS011;22617;43.690;27.956;2023-07-08T11:34:44;8.25;;;3.85;;
18695;SDS011;22617;43.690;27.956;2023-07-08T11:39:55;8.10;;;4.30;;
18695;SDS011;22617;43.690;27.956;2023-07-08T11:45:01;8.73;;;4.03;;
18695;SDS011;22617;43.690;27.956;2023-07-08T11:50:13;6.97;;;3.70;;
18695;SDS011;22617;43.690;27.956;2023-07-08T11:55:24;6.70;;;3.50;;
18695;SDS011;22617;43.690;27.956;2023-07-08T12:00:32;6.05;;;3.20;;
18695;SDS011;22617;43.690;27.956;2023-07-08T12:05:38;8.88;;;4.75;;
18695;SDS011;22617;43.690;27.956;2023-07-08T12:10:48;6.85;;;3.38;;
18695;SDS011;22617;43.690;27.956;2023-07-08T12:15:53;8.55;;;3.50;;
18695;SDS011;22617;43.690;27.956;2023-07-08T12:20:57;4.90;;;3.03;;
18695;SDS011;22617;43.690;27.956;2023-07-08T12:26:07;8.05;;;3.15;;
18695;SDS011;22617;43.690;27.956;2023-07-08T12:31:13;6.18;;;3.17;;
18695;SDS011;22617;43.690;27.956;2023-07-08T12:36:20;7.05;;;2.80;;
18695;SDS011;22617;43.690;27.956;2023-07-08T12:41:29;15.15;;;3.47;;
18695;SDS011;22617;43.690;27.956;2023-07-08T12:46:34;6.00;;;2.80;;
18695;SDS011;22617;43.690;27.956;2023-07-08T12:51:41;9.02;;;2.72;;
18695;SDS011;22617;43.690;27.956;2023-07-08T12:56:47;8.63;;;2.70;;
18695;SDS011;22617;43.690;27.956;2023-07-08T13:01:50;7.40;;;3.10;;
18695;SDS011;22617;43.690;27.956;2023-07-08T13:06:55;10.00;;;2.88;;
18695;SDS011;22617;43.690;27.956;2023-07-08T13:12:01;13.30;;;3.17;;
18695;SDS011;22617;43.690;27.956;2023-07-08T13:17:07;4.63;;;2.35;;
18695;SDS011;22617;43.690;27.956;2023-07-08T13:22:15;5.75;;;2.60;;
18695;SDS011;22617;43.690;27.956;2023-07-08T13:27:24;8.63;;;2.53;;
18695;SDS011;22617;43.690;27.956;2023-07-08T13:32:29;6.10;;;2.75;;
18695;SDS011;22617;43.690;27.956;2023-07-08T13:37:35;3.83;;;2.17;;
18695;SDS011;22617;43.690;27.956;2023-07-08T13:42:40;5.18;;;2.47;;
18695;SDS011;22617;43.690;27.956;2023-07-08T13:47:59;9.05;;;2.85;;
18695;SDS011;22617;43.690;27.956;2023-07-08T13:53:14;4.78;;;2.55;;
18695;SDS011;22617;43.690;27.956;2023-07-08T13:58:21;4.88;;;2.45;;
18695;SDS011;22617;43.690;27.956;2023-07-08T14:03:30;6.57;;;2.50;;
18695;SDS011;22617;43.690;27.956;2023-07-08T14:08:34;5.03;;;2.60;;
18695;SDS011;22617;43.690;27.956;2023-07-08T14:13:38;6.53;;;2.95;;
18695;SDS011;22617;43.690;27.956;2023-07-08T14:18:42;7.45;;;3.30;;
18695;SDS011;22617;43.690;27.956;2023-07-08T14:23:47;4.78;;;2.63;;
18695;SDS011;22617;43.690;27.956;2023-07-08T14:28:52;5.03;;;2.65;;
18695;SDS011;22617;43.690;27.956;2023-07-08T14:33:57;4.82;;;2.70;;
18695;SDS011;22617;43.690;27.956;2023-07-08T14:39:17;4.72;;;2.97;;
18695;SDS011;22617;43.690;27.956;2023-07-08T14:44:24;7.18;;;2.65;;
18695;SDS011;22617;43.690;27.956;2023-07-08T14:49:29;6.43;;;2.42;;
18695;SDS011;22617;43.690;27.956;2023-07-08T14:54:32;5.15;;;2.30;;
18695;SDS011;22617;43.690;27.956;2023-07-08T14:59:38;3.35;;;2.15;;
18695;SDS011;22617;43.690;27.956;2023-07-08T15:04:41;3.95;;;2.42;;
18695;SDS011;22617;43.690;27.956;2023-07-08T15:09:45;3.25;;;2.53;;
18695;SDS011;22617;43.690;27.956;2023-07-08T15:14:50;7.82;;;2.53;;
18695;SDS011;22617;43.690;27.956;2023-07-08T15:19:54;4.65;;;2.63;;
18695;SDS011;22617;43.690;27.956;2023-07-08T15:24:57;3.65;;;2.45;;
18695;SDS011;22617;43.690;27.956;2023-07-08T15:30:02;5.72;;;2.60;;
18695;SDS011;22617;43.690;27.956;2023-07-08T15:35:10;5.10;;;2.30;;
18695;SDS011;22617;43.690;27.956;2023-07-08T15:40:16;7.00;;;2.38;;
18695;SDS011;22617;43.690;27.956;2023-07-08T15:45:22;3.97;;;2.15;;
18695;SDS011;22617;43.690;27.956;2023-07-08T15:50:28;4.03;;;2.13;;
18695;SDS011;22617;43.690;27.956;2023-07-08T15:55:33;5.00;;;2.40;;
18695;SDS011;22617;43.690;27.956;2023-07-08T16:00:40;5.55;;;2.60;;
18695;SDS011;22617;43.690;27.956;2023-07-08T16:05:44;5.55;;;2.83;;
18695;SDS011;22617;43.690;27.956;2023-07-08T16:10:49;4.25;;;2.22;;
18695;SDS011;22617;43.690;27.956;2023-07-08T16:15:56;4.28;;;2.15;;
18695;SDS011;22617;43.690;27.956;2023-07-08T16:21:00;5.82;;;2.15;;
18695;SDS011;22617;43.690;27.956;2023-07-08T16:26:04;5.68;;;2.25;;
18695;SDS011;22617;43.690;27.956;2023-07-08T16:31:10;6.35;;;1.98;;
18695;SDS011;22617;43.690;27.956;2023-07-08T16:36:16;6.13;;;2.17;;
18695;SDS011;22617;43.690;27.956;2023-07-08T16:41:21;5.47;;;2.45;;
18695;SDS011;22617;43.690;27.956;2023-07-08T16:46:29;6.80;;;2.17;;
18695;SDS011;22617;43.690;27.956;2023-07-08T16:51:33;6.00;;;2.25;;
18695;SDS011;22617;43.690;27.956;2023-07-08T16:56:37;4.20;;;2.22;;
18695;SDS011;22617;43.690;27.956;2023-07-08T17:01:45;2.53;;;1.90;;
18695;SDS011;22617;43.690;27.956;2023-07-08T17:06:49;4.28;;;2.00;;
18695;SDS011;22617;43.690;27.956;2023-07-08T17:11:52;6.00;;;2.00;;
18695;SDS011;22617;43.690;27.956;2023-07-08T17:16:57;5.57;;;2.15;;
18695;SDS011;22617;43.690;27.956;2023-07-08T17:22:01;5.68;;;2.03;;
18695;SDS011;22617;43.690;27.956;2023-07-08T17:27:05;4.82;;;2.00;;
18695;SDS011;22617;43.690;27.956;2023-07-08T17:32:10;4.75;;;2.20;;
18695;SDS011;22617;43.690;27.956;2023-07-08T17:37:15;3.17;;;1.80;;
18695;SDS011;22617;43.690;27.956;2023-07-08T17:42:18;6.43;;;2.40;;
18695;SDS011;22617;43.690;27.956;2023-07-08T17:47:23;6.07;;;1.83;;
18695;SDS011;22617;43.690;27.956;2023-07-08T17:52:27;3.33;;;2.05;;
18695;SDS011;22617;43.690;27.956;2023-07-08T17:57:30;3.00;;;2.03;;
18695;SDS011;22617;43.690;27.956;2023-07-08T18:02:35;5.82;;;2.70;;
18695;SDS011;22617;43.690;27.956;2023-07-08T18:07:39;4.28;;;2.17;;
18695;SDS011;22617;43.690;27.956;2023-07-08T18:12:43;3.97;;;2.38;;
18695;SDS011;22617;43.690;27.956;2023-07-08T18:17:50;4.32;;;2.53;;
18695;SDS011;22617;43.690;27.956;2023-07-08T18:22:55;3.17;;;2.55;;
18695;SDS011;22617;43.690;27.956;2023-07-08T18:28:00;4.97;;;2.42;;
18695;SDS011;22617;43.690;27.956;2023-07-08T18:33:08;3.92;;;2.55;;
18695;SDS011;22617;43.690;27.956;2023-07-08T18:38:14;5.80;;;2.42;;
18695;SDS011;22617;43.690;27.956;2023-07-08T18:43:18;4.25;;;2.67;;
18695;SDS011;22617;43.690;27.956;2023-07-08T18:48:25;6.07;;;2.63;;
18695;SDS011;22617;43.690;27.956;2023-07-08T18:53:28;5.93;;;2.78;;
18695;SDS011;22617;43.690;27.956;2023-07-08T18:58:32;5.63;;;2.53;;
18695;SDS011;22617;43.690;27.956;2023-07-08T19:03:37;4.90;;;2.78;;
18695;SDS011;22617;43.690;27.956;2023-07-08T19:08:41;3.50;;;2.58;;
18695;SDS011;22617;43.690;27.956;2023-07-08T19:13:48;5.47;;;2.47;;
18695;SDS011;22617;43.690;27.956;2023-07-08T19:18:54;5.90;;;2.42;;
18695;SDS011;22617;43.690;27.956;2023-07-08T19:23:58;4.55;;;2.58;;
18695;SDS011;22617;43.690;27.956;2023-07-08T19:29:02;4.88;;;2.33;;
18695;SDS011;22617;43.690;27.956;2023-07-08T19:34:08;3.53;;;2.25;;
18695;SDS011;22617;43.690;27.956;2023-07-08T19:39:15;5.88;;;2.40;;
18695;SDS011;22617;43.690;27.956;2023-07-08T19:44:20;3.22;;;2.35;;
18695;SDS011;22617;43.690;27.956;2023-07-08T19:49:28;3.83;;;2.42;;
18695;SDS011;22617;43.690;27.956;2023-07-08T19:54:32;6.93;;;2.63;;
18695;SDS011;22617;43.690;27.956;2023-07-08T19:59:35;3.45;;;2.40;;
18695;SDS011;22617;43.690;27.956;2023-07-08T20:04:40;4.13;;;2.22;;
18695;SDS011;22617;43.690;27.956;2023-07-08T20:09:50;2.45;;;2.08;;
18695;SDS011;22617;43.690;27.956;2023-07-08T20:14:53;3.08;;;2.20;;
18695;SDS011;22617;43.690;27.956;2023-07-08T20:19:59;4.82;;;2.10;;
18695;SDS011;22617;43.690;27.956;2023-07-08T20:25:04;4.65;;;2.40;;
18695;SDS011;22617;43.690;27.956;2023-07-08T20:30:18;5.43;;;2.42;;
18695;SDS011;22617;43.690;27.956;2023-07-08T20:35:24;3.08;;;2.13;;
18695;SDS011;22617;43.690;27.956;2023-07-08T20:40:30;5.10;;;2.45;;
18695;SDS011;22617;43.690;27.956;2023-07-08T20:45:34;4.57;;;2.78;;
18695;SDS011;22617;43.690;27.956;2023-07-08T20:50:39;4.10;;;2.30;;
18695;SDS011;22617;43.690;27.956;2023-07-08T20:55:43;4.65;;;2.60;;
18695;SDS011;22617;43.690;27.956;2023-07-08T21:00:46;3.20;;;2.25;;
18695;SDS011;22617;43.690;27.956;2023-07-08T21:05:53;3.67;;;2.13;;
18695;SDS011;22617;43.690;27.956;2023-07-08T21:10:58;3.97;;;2.28;;
18695;SDS011;22617;43.690;27.956;2023-07-08T21:16:01;4.15;;;2.20;;
18695;SDS011;22617;43.690;27.956;2023-07-08T21:21:07;4.22;;;2.20;;
18695;SDS011;22617;43.690;27.956;2023-07-08T21:26:15;3.50;;;2.10;;
18695;SDS011;22617;43.690;27.956;2023-07-08T21:31:22;3.50;;;2.10;;
18695;SDS011;22617;43.690;27.956;2023-07-08T21:36:28;4.63;;;2.35;;
18695;SDS011;22617;43.690;27.956;2023-07-08T21:41:35;5.82;;;2.28;;
18695;SDS011;22617;43.690;27.956;2023-07-08T21:46:38;2.95;;;2.28;;
18695;SDS011;22617;43.690;27.956;2023-07-08T21:51:43;4.38;;;2.28;;
18695;SDS011;22617;43.690;27.956;2023-07-08T21:56:47;6.47;;;2.07;;
18695;SDS011;22617;43.690;27.956;2023-07-08T22:01:51;5.20;;;2.50;;
18695;SDS011;22617;43.690;27.956;2023-07-08T22:06:56;3.70;;;2.28;;
18695;SDS011;22617;43.690;27.956;2023-07-08T22:12:03;3.97;;;2.15;;
18695;SDS011;22617;43.690;27.956;2023-07-08T22:17:09;3.22;;;2.05;;
18695;SDS011;22617;43.690;27.956;2023-07-08T22:22:19;4.05;;;2.13;;
18695;SDS011;22617;43.690;27.956;2023-07-08T22:27:25;4.70;;;2.03;;
18695;SDS011;22617;43.690;27.956;2023-07-08T22:32:28;3.13;;;2.15;;
18695;SDS011;22617;43.690;27.956;2023-07-08T22:37:33;3.90;;;2.47;;
18695;SDS011;22617;43.690;27.956;2023-07-08T22:42:37;5.20;;;2.20;;
18695;SDS011;22617;43.690;27.956;2023-07-08T22:47:41;3.97;;;2.10;;
18695;SDS011;22617;43.690;27.956;2023-07-08T22:52:49;4.35;;;2.22;;
18695;SDS011;22617;43.690;27.956;2023-07-08T22:57:57;6.65;;;2.20;;
18695;SDS011;22617;43.690;27.956;2023-07-08T23:03:02;4.85;;;2.03;;
18695;SDS011;22617;43.690;27.956;2023-07-08T23:08:09;5.88;;;2.10;;
18695;SDS011;22617;43.690;27.956;2023-07-08T23:13:15;5.03;;;2.08;;
18695;SDS011;22617;43.690;27.956;2023-07-08T23:18:20;2.90;;;2.00;;
18695;SDS011;22617;43.690;27.956;2023-07-08T23:23:25;4.32;;;1.75;;
18695;SDS011;22617;43.690;27.956;2023-07-08T23:28:28;4.57;;;1.92;;
18695;SDS011;22617;43.690;27.956;2023-07-08T23:33:32;6.15;;;2.20;;
18695;SDS011;22617;43.690;27.956;2023-07-08T23:38:37;3.03;;;1.77;;
18695;SDS011;22617;43.690;27.956;2023-07-08T23:43:40;4.95;;;2.05;;
18695;SDS011;22617;43.690;27.956;2023-07-08T23:48:46;3.50;;;1.95;;
18695;SDS011;22617;43.690;27.956;2023-07-08T23:53:51;3.75;;;2.05;;
18695;SDS011;22617;43.690;27.956;2023-07-08T23:58:55;3.95;;;1.75;;
